createdAt,value
2018-08-19T00:02:21.259Z,60.56
2018-08-19T00:05:06.877Z,60.48
2018-08-19T00:07:37.510Z,61.35
2018-08-19T00:10:07.410Z,60.17
2018-08-19T00:12:40.168Z,60.52
2018-08-19T00:15:09.479Z,61.31
2018-08-19T00:17:39.025Z,61.58
2018-08-19T00:25:33.602Z,62.04
2018-08-19T00:28:04.796Z,62.66
2018-08-19T00:30:35.346Z,62.86
2018-08-19T00:36:00.697Z,63.54
2018-08-19T00:38:30.084Z,62.96
2018-08-19T00:40:59.551Z,61.74
2018-08-19T00:43:28.687Z,61.85
2018-08-19T00:48:26.102Z,60.33
2018-08-19T00:50:55.334Z,60.50
2018-08-19T00:53:25.381Z,62.07
2018-08-19T00:55:55.279Z,62.27
2018-08-19T00:58:24.662Z,62.55
2018-08-19T01:00:54.261Z,63.59
2018-08-19T01:03:23.741Z,63.76
2018-08-19T01:05:52.945Z,64.22
2018-08-19T01:08:22.508Z,63.83
2018-08-19T01:10:52.567Z,62.90
2018-08-19T01:13:21.873Z,63.25
2018-08-19T01:15:51.353Z,63.00
2018-08-19T01:18:20.609Z,64.41
2018-08-19T01:20:54.568Z,64.03
2018-08-19T01:23:23.864Z,63.90
2018-08-19T01:25:52.971Z,63.74
2018-08-19T01:28:22.024Z,63.92
2018-08-19T01:30:52.026Z,63.81
2018-08-19T01:33:21.254Z,64.00
2018-08-19T01:35:50.385Z,63.44
2018-08-19T01:38:19.705Z,63.47
2018-08-19T01:40:49.000Z,62.88
2018-08-19T01:43:18.470Z,63.29
2018-08-19T01:45:48.583Z,63.91
2018-08-19T01:48:17.773Z,63.71
2018-08-19T01:50:46.887Z,63.20
2018-08-19T01:53:16.319Z,63.75
2018-08-19T01:55:45.682Z,63.70
2018-08-19T01:58:14.809Z,64.25
2018-08-19T02:00:44.112Z,63.91
2018-08-19T02:03:13.447Z,63.98
2018-08-19T02:05:43.758Z,63.20
2018-08-19T02:10:50.619Z,63.37
2018-08-19T02:13:21.925Z,62.76
2018-08-19T02:15:52.365Z,63.79
2018-08-19T02:18:22.996Z,64.24
2018-08-19T02:20:52.656Z,64.50
2018-08-19T02:23:21.998Z,63.95
2018-08-19T02:25:51.429Z,63.96
2018-08-19T02:28:21.875Z,64.28
2018-08-19T02:30:56.227Z,63.93
2018-08-19T02:33:25.470Z,63.88
2018-08-19T02:36:00.082Z,64.48
2018-08-19T02:38:29.767Z,64.53
2018-08-19T02:40:58.893Z,64.45
2018-08-19T02:43:28.103Z,64.00
2018-08-19T02:45:57.593Z,64.07
2018-08-19T02:48:45.004Z,65.51
2018-08-19T02:51:16.803Z,65.76
2018-08-19T02:53:47.393Z,65.01
2018-08-19T02:56:17.315Z,65.03
2018-08-19T02:58:47.417Z,64.44
2018-08-19T03:01:18.001Z,64.71
2018-08-19T03:03:48.489Z,64.97
2018-08-19T03:06:18.202Z,65.62
2018-08-19T03:08:53.039Z,66.02
2018-08-19T03:11:22.868Z,65.74
2018-08-19T03:13:51.984Z,64.56
2018-08-19T03:16:21.422Z,64.10
2018-08-19T03:18:51.978Z,65.56
2018-08-19T03:21:23.618Z,65.69
2018-08-19T03:23:54.239Z,65.93
2018-08-19T03:26:23.332Z,65.25
2018-08-19T03:28:52.872Z,65.20
2018-08-19T03:31:22.065Z,64.74
2018-08-19T03:33:51.187Z,64.78
2018-08-19T03:36:20.347Z,64.70
2018-08-19T03:38:49.771Z,65.18
2018-08-19T03:41:19.257Z,64.77
2018-08-19T03:43:53.427Z,65.06
2018-08-19T03:46:23.921Z,63.39
2018-08-19T03:48:53.174Z,64.67
2018-08-19T03:51:22.997Z,64.20
2018-08-19T03:53:53.017Z,64.38
2018-08-19T03:56:27.524Z,64.09
2018-08-19T03:58:59.810Z,64.37
2018-08-19T04:01:38.799Z,64.30
2018-08-19T04:04:09.440Z,64.70
2018-08-19T04:06:40.058Z,65.35
2018-08-19T04:09:09.947Z,65.90
2018-08-19T04:11:39.331Z,65.48
2018-08-19T04:14:26.436Z,64.94
2018-08-19T04:16:59.323Z,64.87
2018-08-19T04:19:30.739Z,64.99
2018-08-19T04:22:01.997Z,64.57
2018-08-19T04:24:31.703Z,64.73
2018-08-19T04:27:12.478Z,64.33
2018-08-19T04:32:22.623Z,63.45
2018-08-19T04:34:52.069Z,62.89
2018-08-19T04:37:21.583Z,62.58
2018-08-19T04:39:50.927Z,62.70
2018-08-19T04:42:20.408Z,62.98
2018-08-19T04:44:49.614Z,63.19
2018-08-19T04:47:29.596Z,62.28
2018-08-19T04:49:58.906Z,63.25
2018-08-19T04:52:28.266Z,62.67
2018-08-19T04:57:33.154Z,61.89
2018-08-19T05:00:02.316Z,61.97
2018-08-19T05:02:31.802Z,61.50
2018-08-19T05:05:01.084Z,61.71
2018-08-19T05:07:30.558Z,61.41
2018-08-19T05:09:59.694Z,60.83
2018-08-19T05:12:29.081Z,61.23
2018-08-19T05:14:58.255Z,60.09
2018-08-19T05:17:27.669Z,58.34
2018-08-19T05:20:16.030Z,59.05
2018-08-19T05:22:45.305Z,57.87
2018-08-19T05:25:14.324Z,58.22
2018-08-19T05:27:43.417Z,57.29
2018-08-19T05:30:12.329Z,57.29
2018-08-19T05:32:46.964Z,57.00
2018-08-19T05:35:15.935Z,57.68
2018-08-19T05:37:44.983Z,55.60
2018-08-19T05:40:14.000Z,55.42
2018-08-19T05:42:42.960Z,54.53
2018-08-19T05:45:11.968Z,53.21
2018-08-19T05:47:40.940Z,54.83
2018-08-19T05:50:09.984Z,53.71
2018-08-19T05:52:39.040Z,54.11
2018-08-19T05:55:08.355Z,53.27
2018-08-19T05:57:43.757Z,53.83
2018-08-19T06:00:18.469Z,53.82
2018-08-19T06:02:47.481Z,53.38
2018-08-19T06:05:16.368Z,52.83
2018-08-19T06:07:45.748Z,51.46
2018-08-19T06:10:14.753Z,51.97
2018-08-19T06:12:43.690Z,52.41
2018-08-19T06:15:12.590Z,52.41
2018-08-19T06:17:41.539Z,50.94
2018-08-19T06:20:11.146Z,50.60
2018-08-19T06:22:41.547Z,49.97
2018-08-19T06:25:11.946Z,50.33
2018-08-19T06:27:45.598Z,49.19
2018-08-19T06:30:15.620Z,49.64
2018-08-19T06:32:45.581Z,50.38
2018-08-19T06:35:15.272Z,48.74
2018-08-19T06:37:44.839Z,48.86
2018-08-19T06:42:56.820Z,49.74
2018-08-19T06:45:25.719Z,48.10
2018-08-19T06:47:54.523Z,48.09
2018-08-19T06:50:26.912Z,47.87
2018-08-19T06:52:56.237Z,48.94
2018-08-19T06:55:25.172Z,48.06
2018-08-19T06:57:57.050Z,47.37
2018-08-19T07:00:31.911Z,47.41
2018-08-19T07:03:04.102Z,48.92
2018-08-19T07:05:33.680Z,47.71
2018-08-19T07:08:03.126Z,46.83
2018-08-19T07:10:39.095Z,46.19
2018-08-19T07:13:10.471Z,46.14
2018-08-19T07:15:40.686Z,45.92
2018-08-19T07:18:12.217Z,46.36
2018-08-19T07:20:41.932Z,45.01
2018-08-19T07:23:11.210Z,46.04
2018-08-19T07:25:45.225Z,46.20
2018-08-19T07:28:15.514Z,45.59
2018-08-19T07:30:44.516Z,45.96
2018-08-19T07:33:13.920Z,46.66
2018-08-19T07:35:42.753Z,45.73
2018-08-19T07:38:11.905Z,45.27
2018-08-19T07:40:41.118Z,45.52
2018-08-19T07:43:10.193Z,46.04
2018-08-19T07:45:39.203Z,45.23
2018-08-19T07:48:08.321Z,44.54
2018-08-19T07:50:37.325Z,45.06
2018-08-19T07:53:06.393Z,45.20
2018-08-19T07:55:35.396Z,44.36
2018-08-19T07:58:04.615Z,43.46
2018-08-19T08:00:41.333Z,43.95
2018-08-19T08:03:10.462Z,45.28
2018-08-19T08:05:44.908Z,44.61
2018-08-19T08:08:13.857Z,44.15
2018-08-19T08:10:42.926Z,43.96
2018-08-19T08:13:13.280Z,42.02
2018-08-19T08:15:47.538Z,42.79
2018-08-19T08:20:58.913Z,43.09
2018-08-19T08:23:29.716Z,42.33
2018-08-19T08:25:58.710Z,41.58
2018-08-19T08:28:27.729Z,42.00
2018-08-19T08:30:56.947Z,41.20
2018-08-19T08:33:26.231Z,40.42
2018-08-19T08:38:31.758Z,39.90
2018-08-19T08:41:02.002Z,39.42
2018-08-19T08:43:30.985Z,40.30
2018-08-19T08:46:00.745Z,39.46
2018-08-19T08:48:30.500Z,38.18
2018-08-19T08:51:03.162Z,38.50
2018-08-19T08:53:40.442Z,36.98
2018-08-19T08:56:09.386Z,39.01
2018-08-19T08:58:38.400Z,37.94
2018-08-19T09:01:07.487Z,36.03
2018-08-19T09:03:36.523Z,35.75
2018-08-19T09:06:15.400Z,34.89
2018-08-19T09:08:44.496Z,34.67
2018-08-19T09:11:13.864Z,34.76
2018-08-19T09:13:42.941Z,36.44
2018-08-19T09:16:11.989Z,34.54
2018-08-19T09:18:41.127Z,34.29
2018-08-19T09:21:10.160Z,34.37
2018-08-19T09:23:39.249Z,33.35
2018-08-19T09:26:08.345Z,34.57
2018-08-19T09:28:37.281Z,35.17
2018-08-19T09:31:06.507Z,33.38
2018-08-19T09:33:36.346Z,35.48
2018-08-19T09:36:06.438Z,35.42
2018-08-19T09:38:36.220Z,33.72
2018-08-19T09:41:06.257Z,33.02
2018-08-19T09:43:35.218Z,33.57
2018-08-19T09:46:04.413Z,33.05
2018-08-19T09:48:33.469Z,31.85
2018-08-19T09:51:05.500Z,33.41
2018-08-19T09:53:35.208Z,32.36
2018-08-19T09:56:09.210Z,31.45
2018-08-19T09:58:38.430Z,28.72
2018-08-19T10:01:14.023Z,30.10
2018-08-19T10:03:42.974Z,30.93
2018-08-19T10:06:12.288Z,31.74
2018-08-19T10:08:41.486Z,31.49
2018-08-19T10:11:11.483Z,32.23
2018-08-19T10:13:40.557Z,31.79
2018-08-19T10:16:09.524Z,32.48
2018-08-19T10:18:38.672Z,29.80
2018-08-19T10:21:12.705Z,30.44
2018-08-19T10:23:42.479Z,30.07
2018-08-19T10:26:11.659Z,32.32
2018-08-19T10:28:41.849Z,30.10
2018-08-19T10:31:17.974Z,32.47
2018-08-19T10:33:47.450Z,32.41
2018-08-19T10:36:16.436Z,32.22
2018-08-19T10:38:45.328Z,30.68
2018-08-19T10:41:14.352Z,30.70
2018-08-19T10:43:43.650Z,29.25
2018-08-19T10:46:12.656Z,31.31
2018-08-19T10:48:41.918Z,30.22
2018-08-19T10:56:10.695Z,29.44
2018-08-19T10:58:45.535Z,30.19
2018-08-19T11:01:15.122Z,32.69
2018-08-19T11:03:43.997Z,31.37
2018-08-19T11:06:12.932Z,30.74
2018-08-19T11:08:49.547Z,28.73
2018-08-19T11:11:18.556Z,28.63
2018-08-19T11:13:48.032Z,29.85
2018-08-19T11:16:17.313Z,28.78
2018-08-19T11:18:47.891Z,30.31
2018-08-19T11:21:29.044Z,28.67
2018-08-19T11:23:59.262Z,30.62
2018-08-19T11:26:28.637Z,30.78
2018-08-19T11:29:00.793Z,30.61
2018-08-19T11:31:32.130Z,27.43
2018-08-19T11:36:44.227Z,27.05
2018-08-19T11:39:15.460Z,28.28
2018-08-19T11:41:44.349Z,26.54
2018-08-19T11:44:15.450Z,30.51
2018-08-19T11:46:44.419Z,30.61
2018-08-19T11:49:15.590Z,28.60
2018-08-19T11:51:49.805Z,27.97
2018-08-19T11:54:20.781Z,29.26
2018-08-19T11:56:57.054Z,27.32
2018-08-19T11:59:31.912Z,28.31
2018-08-19T12:02:02.155Z,26.80
2018-08-19T12:04:31.868Z,27.08
2018-08-19T12:07:01.260Z,25.08
2018-08-19T12:09:30.690Z,26.48
2018-08-19T12:12:00.117Z,27.14
2018-08-19T12:14:33.103Z,28.17
2018-08-19T12:17:02.828Z,28.82
2018-08-19T12:19:32.397Z,28.02
2018-08-19T12:22:02.584Z,27.99
2018-08-19T12:24:35.560Z,28.00
2018-08-19T12:27:06.573Z,26.32
2018-08-19T12:29:36.404Z,28.61
2018-08-19T12:32:27.751Z,26.17
2018-08-19T12:34:58.257Z,27.79
2018-08-19T12:37:28.261Z,27.48
2018-08-19T12:39:57.753Z,26.86
2018-08-19T12:42:27.651Z,30.12
2018-08-19T12:45:12.207Z,27.17
2018-08-19T12:47:41.014Z,28.75
2018-08-19T12:50:15.301Z,26.41
2018-08-19T12:52:44.325Z,29.05
2018-08-19T12:57:55.570Z,28.50
2018-08-19T13:00:27.995Z,26.95
2018-08-19T13:02:56.819Z,26.84
2018-08-19T13:05:25.702Z,25.63
2018-08-19T13:07:54.768Z,27.84
2018-08-19T13:10:27.606Z,26.40
2018-08-19T13:12:57.697Z,26.80
2018-08-19T13:15:28.923Z,25.81
2018-08-19T13:17:57.850Z,27.20
2018-08-19T13:20:27.152Z,27.02
2018-08-19T13:22:59.743Z,26.61
2018-08-19T13:25:28.858Z,27.15
2018-08-19T13:27:58.215Z,26.68
2018-08-19T13:30:27.779Z,26.80
2018-08-19T13:32:56.833Z,25.14
2018-08-19T13:35:25.963Z,25.92
2018-08-19T13:37:55.946Z,24.55
2018-08-19T13:40:25.864Z,24.98
2018-08-19T13:42:54.992Z,24.87
2018-08-19T13:45:26.196Z,25.29
2018-08-19T13:47:55.599Z,25.32
2018-08-19T13:50:25.961Z,25.44
2018-08-19T13:52:55.092Z,25.83
2018-08-19T13:55:24.683Z,26.12
2018-08-19T13:57:54.328Z,24.61
2018-08-19T14:03:02.936Z,26.62
2018-08-19T14:05:32.735Z,24.12
2018-08-19T14:08:02.712Z,25.63
2018-08-19T14:10:32.814Z,24.77
2018-08-19T14:13:02.655Z,26.53
2018-08-19T14:15:32.042Z,27.21
2018-08-19T14:18:04.838Z,26.70
2018-08-19T14:20:33.798Z,27.23
2018-08-19T14:23:03.188Z,26.63
2018-08-19T14:25:32.148Z,27.31
2018-08-19T14:28:01.009Z,26.66
2018-08-19T14:30:30.237Z,26.33
2018-08-19T14:35:33.960Z,25.59
2018-08-19T14:38:03.776Z,27.87
2018-08-19T14:43:09.664Z,29.77
2018-08-19T14:45:38.741Z,29.00
2018-08-19T14:48:07.931Z,29.29
2018-08-19T14:50:36.975Z,29.12
2018-08-19T14:53:05.959Z,29.60
2018-08-19T14:55:38.208Z,30.57
2018-08-19T14:58:10.869Z,32.79
2018-08-19T15:00:41.114Z,33.54
2018-08-19T15:03:13.713Z,33.90
2018-08-19T15:05:47.720Z,33.14
2018-08-19T15:08:20.072Z,34.46
2018-08-19T15:10:57.537Z,33.14
2018-08-19T15:13:29.256Z,34.42
2018-08-19T15:15:59.704Z,34.16
2018-08-19T15:18:31.456Z,33.86
2018-08-19T15:21:05.375Z,32.79
2018-08-19T15:23:37.956Z,32.54
2018-08-19T15:26:10.931Z,31.06
2018-08-19T15:28:40.906Z,32.58
2018-08-19T15:31:16.832Z,31.90
2018-08-19T15:33:50.158Z,30.62
2018-08-19T15:36:21.440Z,30.98
2018-08-19T15:38:52.556Z,30.90
2018-08-19T15:41:23.833Z,31.97
2018-08-19T15:43:56.165Z,30.84
2018-08-19T15:46:28.344Z,31.75
2018-08-19T15:48:59.003Z,31.32
2018-08-19T15:51:31.878Z,30.79
2018-08-19T15:54:03.384Z,32.36
2018-08-19T15:56:36.159Z,31.87
2018-08-19T15:59:10.269Z,32.97
2018-08-19T16:04:25.041Z,33.46
2018-08-19T16:06:56.647Z,31.80
2018-08-19T16:09:30.036Z,32.39
2018-08-19T16:14:41.622Z,33.17
2018-08-19T16:17:12.639Z,31.95
2018-08-19T16:19:45.355Z,30.10
2018-08-19T16:22:17.859Z,31.33
2018-08-19T16:24:51.477Z,31.75
2018-08-19T16:27:24.254Z,31.24
2018-08-19T16:32:31.062Z,34.84
2018-08-19T16:35:03.311Z,34.08
2018-08-19T16:37:34.905Z,32.06
2018-08-19T16:40:07.541Z,33.08
2018-08-19T16:42:39.353Z,33.12
2018-08-19T16:45:13.808Z,34.53
2018-08-19T16:47:44.901Z,34.20
2018-08-19T16:50:23.320Z,34.76
2018-08-19T16:52:58.513Z,34.83
2018-08-19T16:55:31.221Z,35.63
2018-08-19T17:00:41.365Z,37.32
2018-08-19T17:03:26.310Z,38.67
2018-08-19T17:06:00.246Z,38.03
2018-08-19T17:08:33.850Z,37.74
2018-08-19T17:11:06.838Z,38.10
2018-08-19T17:13:39.188Z,38.86
2018-08-19T17:16:09.565Z,39.29
2018-08-19T17:18:44.433Z,40.17
2018-08-19T17:21:16.142Z,39.99
2018-08-19T17:23:53.759Z,39.20
2018-08-19T17:26:26.726Z,40.18
2018-08-19T17:29:32.646Z,40.74
2018-08-19T17:32:05.834Z,41.35
2018-08-19T17:34:40.589Z,40.87
2018-08-19T17:37:12.993Z,41.99
2018-08-19T17:39:46.841Z,41.60
2018-08-19T17:42:19.917Z,43.07
2018-08-19T17:44:53.184Z,42.65
2018-08-19T17:47:25.526Z,42.83
2018-08-19T17:49:59.753Z,42.22
2018-08-19T17:52:32.870Z,42.70
2018-08-19T17:55:04.720Z,42.96
2018-08-19T17:57:36.976Z,43.66
2018-08-19T18:00:08.801Z,43.11
2018-08-19T18:02:40.774Z,43.32
2018-08-19T18:05:17.045Z,43.49
2018-08-19T18:07:56.711Z,43.45
2018-08-19T18:10:28.230Z,44.24
2018-08-19T18:13:00.336Z,44.74
2018-08-19T18:15:32.721Z,44.44
2018-08-19T18:18:08.877Z,44.68
2018-08-19T18:20:45.748Z,45.39
2018-08-19T18:23:34.149Z,44.92
2018-08-19T18:26:05.625Z,46.44
2018-08-19T18:28:36.466Z,45.85
2018-08-19T18:31:09.184Z,46.69
2018-08-19T18:33:51.815Z,47.24
2018-08-19T18:36:25.007Z,47.93
2018-08-19T18:38:58.366Z,48.71
2018-08-19T18:41:35.674Z,49.29
2018-08-19T18:44:09.603Z,48.82
2018-08-19T18:46:43.283Z,48.43
2018-08-19T18:49:17.401Z,47.69
2018-08-19T18:51:50.131Z,49.57
2018-08-19T18:54:33.946Z,48.45
2018-08-19T18:57:09.109Z,48.57
2018-08-19T18:59:45.818Z,49.22
2018-08-19T19:02:18.850Z,48.73
2018-08-19T19:04:51.796Z,49.33
2018-08-19T19:07:24.134Z,49.85
2018-08-19T19:09:55.831Z,49.90
2018-08-19T19:12:25.668Z,49.73
2018-08-19T19:14:56.365Z,50.21
2018-08-19T19:17:30.075Z,51.31
2018-08-19T19:20:02.485Z,50.94
2018-08-19T19:22:34.209Z,51.25
2018-08-19T19:25:04.264Z,51.39
2018-08-19T19:27:36.776Z,51.32
2018-08-19T19:30:09.218Z,51.24
2018-08-19T19:32:41.640Z,50.95
2018-08-19T19:35:17.011Z,51.73
2018-08-19T19:37:49.959Z,51.42
2018-08-19T19:40:22.485Z,51.33
2018-08-19T19:42:54.493Z,50.83
2018-08-19T19:45:24.917Z,49.27
2018-08-19T19:50:36.239Z,50.69
2018-08-19T19:53:07.856Z,51.44
2018-08-19T19:55:41.795Z,51.28
2018-08-19T19:58:14.608Z,51.54
2018-08-19T20:00:55.453Z,51.20
2018-08-19T20:03:27.628Z,51.59
2018-08-19T20:05:59.315Z,52.31
2018-08-19T20:08:29.409Z,51.64
2018-08-19T20:11:07.441Z,51.19
2018-08-19T20:13:38.062Z,51.16
2018-08-19T20:16:13.310Z,51.12
2018-08-19T20:18:47.533Z,52.13
2018-08-19T20:21:23.612Z,51.69
2018-08-19T20:23:57.828Z,52.33
2018-08-19T20:26:29.981Z,52.44
2018-08-19T20:29:04.217Z,53.00
2018-08-19T20:31:35.787Z,52.81
2018-08-19T20:34:04.990Z,52.75
2018-08-19T20:36:34.942Z,52.32
2018-08-19T20:39:11.005Z,52.25
2018-08-19T20:41:41.945Z,53.22
2018-08-19T20:44:15.956Z,52.60
2018-08-19T20:46:54.662Z,52.56
2018-08-19T20:49:26.652Z,53.00
2018-08-19T20:51:58.845Z,51.97
2018-08-19T20:54:29.212Z,51.88
2018-08-19T20:56:59.516Z,51.83
2018-08-19T20:59:35.159Z,52.98
2018-08-19T21:02:07.698Z,53.23
2018-08-19T21:04:40.893Z,54.06
2018-08-19T21:07:12.649Z,53.67
2018-08-19T21:09:43.923Z,52.57
2018-08-19T21:12:14.578Z,52.21
2018-08-19T21:14:45.951Z,53.04
2018-08-19T21:17:18.485Z,53.24
2018-08-19T21:19:51.004Z,54.13
2018-08-19T21:22:22.411Z,54.86
2018-08-19T21:27:32.661Z,55.24
2018-08-19T21:30:03.441Z,53.96
2018-08-19T21:32:35.004Z,53.60
2018-08-19T21:35:07.543Z,54.33
2018-08-19T21:37:39.346Z,54.33
2018-08-19T21:40:14.072Z,54.35
2018-08-19T21:42:52.569Z,55.02
2018-08-19T21:45:23.305Z,54.35
2018-08-19T21:53:19.157Z,55.33
2018-08-19T21:55:51.295Z,56.48
2018-08-19T21:58:22.479Z,56.62
2018-08-19T22:00:59.895Z,56.46
2018-08-19T22:03:36.817Z,56.55
2018-08-19T22:06:08.762Z,57.04
2018-08-19T22:11:19.125Z,56.67
2018-08-19T22:13:49.941Z,56.61
2018-08-19T22:16:20.553Z,55.89
2018-08-19T22:18:52.333Z,56.62
2018-08-19T22:21:23.777Z,56.85
2018-08-19T22:23:57.885Z,56.09
2018-08-19T22:26:29.526Z,57.60
2018-08-19T22:29:14.529Z,57.45
2018-08-19T22:31:48.195Z,57.45
2018-08-19T22:34:23.742Z,56.96
2018-08-19T22:36:55.683Z,56.95
2018-08-19T22:39:25.822Z,57.63
2018-08-19T22:41:58.214Z,56.83
2018-08-19T22:44:29.959Z,56.88
2018-08-19T22:47:00.257Z,58.02
2018-08-19T22:49:33.552Z,59.05
2018-08-19T22:52:25.904Z,58.26
2018-08-19T22:54:59.318Z,58.51
2018-08-19T22:57:32.400Z,58.87
2018-08-19T23:00:04.320Z,58.19
2018-08-19T23:02:35.708Z,58.45
2018-08-19T23:05:08.695Z,58.90
2018-08-19T23:07:40.619Z,59.05
2018-08-19T23:10:11.603Z,57.92
2018-08-19T23:12:44.177Z,58.16
2018-08-19T23:15:24.555Z,58.97
2018-08-19T23:17:56.912Z,59.78
2018-08-19T23:20:30.073Z,60.17
2018-08-19T23:23:00.723Z,59.75
2018-08-19T23:25:31.567Z,60.71
2018-08-19T23:28:03.739Z,60.92
2018-08-19T23:30:35.918Z,60.49
2018-08-19T23:33:05.943Z,60.56
2018-08-19T23:35:39.900Z,61.53
2018-08-19T23:38:11.628Z,61.49
2018-08-19T23:40:43.711Z,60.81
2018-08-19T23:43:15.915Z,61.90
2018-08-19T23:45:48.513Z,62.25
2018-08-19T23:48:18.600Z,62.02
2018-08-19T23:50:51.030Z,61.92
2018-08-19T23:53:23.338Z,61.30
2018-08-19T23:55:53.680Z,61.56
2018-08-19T23:58:26.600Z,61.78
